Aérodrome :
LOGIN :

S'inscrire | Disclaimer

   EN    FR    IT 

 










Légende :    VFR   VFR Marginal   IFR   IFR Intensif   IFR Très Intensif
Visi : 
Plafond : 
>= 8 km
>= 3000ft
5 à 8 km
1000 à 3000 ft
1500m à 5 km
500 à 1000 ft
800 à 1500m
200 à 500 ft
< 800m
< 200 ft
Symboles :   Orages  Brouillard  Fortes neiges  Fortes précipitations  Vent > 20 kt
SIGMETs :   Divers  Orages  Givrage  Turbulence  Onde Orograph.  Cendres Volcan.







- Altitude de l'aérodrome : 236 ft
- Code IATA : JSY


LGSO - Syros

DERNIER METAR :
  • 181820Z AUTO 18013KT //// // ////// 19/15 Q1011 RE//

METARs EXPIRÉS :
  • 181750Z AUTO 16014KT //// // ////// 18/15 Q1011 RE//
  • 181720Z AUTO 14012KT //// // ////// 18/15 Q1011 RE//
  • 181650Z AUTO 13013KT //// // ////// 18/14 Q1011 RE//
  • 181620Z AUTO 13011KT //// // ////// 18/14 Q1011 RE//
  • 181550Z AUTO 15013KT //// // ////// 18/15 Q1010 RERA

TAF N/A
Pas de NOTAMs connus pour ce terrain.
3 SIGMETs publiés pour la FIR Athinai (LGGG) :
 
Annulation du SIGMET 13
LGGG SIGMET 15 VALID 181850/182030 LGAT
LGGG ATHINAI FIR/UIR CNL SIGMET 13 181830/182030=
Orages noyés dans la masse
LGGG SIGMET 14 VALID 181845/182045 LGAT
LGGG ATHINAI FIR/UIR EMBD TS OBS SE OF LINE N3740 E02040 - N3920 E02630 MNLY OVER MAR MOV NE NC=
SIGMET 13  ANNULÉ :
Orages noyés dans la masse
LGGG SIGMET 13 VALID 181830/182030 LGAT
LGGG ATHINAI FIR/UIR EMBD TS OBS S OF LINE N3740 E02040 - N3920 E02630 MNLY OVER MAR MOV NE NC=



MET'MAP, la Météo Aéronautique d'un coup d'oeil ! - Copyright ORBIFLY Décembre 2007 - Disclaimer

ORBIFLY MET'MAP TEAM :

Programmation & Développement : Alexandra Zaïnal
Conception & Développement : Baudouin d'Aumeries
Co-Programmation & Développement : Marc-Olivier Méhu
Soutien technique & logistique : Manuel Goepfert

Contact : metmap@orbifly.com




SOURCES & CREDITS :

   NOAA